Time;durP1;ratioP1;P1;durP2;ratioP2;P2;SDS_P1;SDS_P2;PMS_P1;PMS_P2;Temp;Humidity;BMP_temperature;BMP_pressure;BME280_temperature;BME280_humidity;BME280_pressure;Samples;Min_cycle;Max_cycle;Signal;HPM_P1;HPM_P2
2022/06/09 00:02:20;;;;;;;23.83;5.23;;;16.40;83.40;;;;;;6262890;22;20396;-93
2022/06/09 00:04:46;;;;;;;18.20;5.88;;;16.40;84.00;;;;;;6233472;23;20159;-93
2022/06/09 00:07:21;;;;;;;20.75;4.90;;;16.40;84.00;;;;;;6235263;23;20184;-92
2022/06/09 00:10:11;;;;;;;25.33;5.80;;;16.40;84.00;;;;;;6234904;23;20148;-92
2022/06/09 00:12:38;;;;;;;24.63;5.88;;;16.30;83.60;;;;;;6241235;23;20415;-93
2022/06/09 00:15:07;;;;;;;20.92;5.10;;;16.30;83.60;;;;;;6242942;22;20172;-93
2022/06/09 00:17:33;;;;;;;19.77;5.93;;;16.30;83.60;;;;;;6225718;23;20684;-92
2022/06/09 00:19:59;;;;;;;20.10;5.50;;;16.20;83.50;;;;;;6225819;23;20153;-92
2022/06/09 00:22:25;;;;;;;18.23;6.40;;;16.20;83.60;;;;;;6252401;22;20423;-91
2022/06/09 00:24:51;;;;;;;22.52;5.68;;;16.20;83.30;;;;;;6252576;23;20160;-92
2022/06/09 00:27:17;;;;;;;21.70;5.70;;;16.10;83.50;;;;;;6226207;23;20294;-92
2022/06/09 00:29:42;;;;;;;24.57;6.33;;;16.10;83.60;;;;;;6229559;23;20165;-92
2022/06/09 00:32:08;;;;;;;29.13;7.00;;;16.10;83.90;;;;;;6227903;23;20430;-92
2022/06/09 00:34:34;;;;;;;20.90;5.63;;;16.00;83.80;;;;;;6228722;23;20156;-92
2022/06/09 00:37:00;;;;;;;19.45;4.90;;;16.00;84.50;;;;;;6226829;23;20430;-92
2022/06/09 00:39:26;;;;;;;19.80;6.00;;;16.00;84.00;;;;;;6234456;22;20160;-91
2022/06/09 00:41:52;;;;;;;23.97;6.00;;;16.00;84.30;;;;;;6235927;23;20403;-93
2022/06/09 00:44:26;;;;;;;24.17;6.63;;;15.90;84.70;;;;;;6251697;23;20376;-92
2022/06/09 00:47:07;;;;;;;476.30;261.20;;;15.90;84.30;;;;;;6223016;23;20148;-92
2022/06/09 00:49:54;;;;;;;24.33;6.18;;;15.90;84.50;;;;;;6223762;23;20144;-92
2022/06/09 00:52:23;;;;;;;13.30;5.95;;;15.80;84.40;;;;;;6230953;23;20190;-93
2022/06/09 00:54:54;;;;;;;17.80;6.18;;;15.80;84.30;;;;;;6235034;23;20156;-92
2022/06/09 00:57:29;;;;;;;26.80;6.72;;;15.80;84.80;;;;;;6231495;23;20497;-92
2022/06/09 01:00:01;;;;;;;20.15;6.75;;;15.80;85.00;;;;;;6223886;23;20227;-92
2022/06/09 01:02:32;;;;;;;20.48;6.03;;;15.80;85.20;;;;;;6224777;23;20211;-92
2022/06/09 01:05:03;;;;;;;20.88;6.53;;;15.70;85.80;;;;;;6229793;23;20144;-92
2022/06/09 01:07:37;;;;;;;24.13;6.75;;;15.70;85.80;;;;;;6246222;22;20141;-91
2022/06/09 01:10:04;;;;;;;17.27;5.82;;;15.70;86.00;;;;;;6246270;22;20159;-91
2022/06/09 01:12:35;;;;;;;15.32;6.47;;;15.70;85.90;;;;;;6222352;22;20174;-91
2022/06/09 01:15:13;;;;;;;23.13;7.03;;;15.70;86.20;;;;;;6273102;22;20164;-90
2022/06/09 01:18:02;;;;;;;18.92;7.45;;;15.70;86.00;;;;;;6246521;22;20188;-91
2022/06/09 01:21:06;;;;;;;25.38;6.95;;;15.60;86.20;;;;;;6236056;23;20163;-92
2022/06/09 01:23:47;;;;;;;18.63;6.57;;;15.60;86.40;;;;;;6250073;23;20151;-92
2022/06/09 01:26:18;;;;;;;27.00;7.63;;;15.60;86.40;;;;;;6228618;23;20164;-92
2022/06/09 01:28:59;;;;;;;21.33;6.53;;;15.50;86.60;;;;;;6233955;23;20156;-91
2022/06/09 01:31:48;;;;;;;15.73;6.10;;;15.50;86.80;;;;;;6240059;23;20203;-91
2022/06/09 01:34:29;;;;;;;23.15;6.03;;;15.50;87.00;;;;;;6268979;23;20125;-92
2022/06/09 01:37:18;;;;;;;22.23;7.05;;;15.50;87.10;;;;;;6270216;23;20180;-92
2022/06/09 01:39:56;;;;;;;14.80;6.75;;;15.50;87.30;;;;;;6239176;23;20200;-91
2022/06/09 01:42:37;;;;;;;18.33;8.43;;;15.40;87.40;;;;;;6229697;23;20183;-92
2022/06/09 01:45:15;;;;;;;30.40;7.47;;;15.40;87.50;;;;;;6223377;23;20208;-93
2022/06/09 01:47:47;;;;;;;19.40;6.13;;;15.50;87.10;;;;;;6222453;23;20156;-92
2022/06/09 01:50:25;;;;;;;19.92;7.65;;;15.50;86.70;;;;;;6260898;23;20202;-91
2022/06/09 01:52:53;;;;;;;26.95;6.93;;;15.40;87.10;;;;;;6233830;23;20176;-92
2022/06/09 01:55:23;;;;;;;26.13;8.00;;;15.40;87.30;;;;;;6230133;23;20214;-93
2022/06/09 01:57:54;;;;;;;29.60;6.93;;;15.30;87.40;;;;;;6231206;23;20156;-93
2022/06/09 02:00:20;;;;;;;21.42;7.20;;;15.40;87.40;;;;;;6229449;23;20196;-92
2022/06/09 02:03:24;;;;;;;24.55;7.70;;;15.30;87.50;;;;;;6252856;22;20168;-91
2022/06/09 02:05:54;;;;;;;22.80;7.13;;;15.30;87.50;;;;;;6246431;22;20144;-87
2022/06/09 02:08:23;;;;;;;20.00;6.63;;;15.20;87.30;;;;;;6245516;22;20152;-89
2022/06/09 02:11:00;;;;;;;25.50;7.15;;;15.30;87.50;;;;;;6236427;22;20152;-91
2022/06/09 02:13:36;;;;;;;28.15;8.95;;;15.20;87.50;;;;;;6265420;23;20140;-91
2022/06/09 02:16:05;;;;;;;25.67;7.65;;;15.20;87.50;;;;;;6243003;22;20210;-91
2022/06/09 02:18:40;;;;;;;26.55;7.97;;;15.20;87.50;;;;;;6245329;22;20156;-90
2022/06/09 02:21:18;;;;;;;19.73;7.38;;;15.20;88.40;;;;;;6233385;23;20172;-92
2022/06/09 02:23:46;;;;;;;19.52;7.38;;;15.20;87.80;;;;;;6226606;23;20219;-91
2022/06/09 02:26:11;;;;;;;30.52;8.45;;;15.20;88.00;;;;;;6223706;23;20157;-91
2022/06/09 02:28:37;;;;;;;23.83;7.70;;;15.20;88.10;;;;;;6225262;23;20172;-92
2022/06/09 02:31:03;;;;;;;16.50;6.53;;;15.20;88.00;;;;;;6226328;23;20179;-92
2022/06/09 02:33:29;;;;;;;24.40;7.60;;;15.20;88.10;;;;;;6226907;23;20389;-92
2022/06/09 02:35:55;;;;;;;28.00;7.97;;;15.10;88.10;;;;;;6233668;23;20415;-91
2022/06/09 02:38:22;;;;;;;23.80;8.53;;;15.10;88.80;;;;;;6248534;22;20399;-90
2022/06/09 02:40:48;;;;;;;20.08;7.63;;;15.10;88.10;;;;;;6248882;22;20379;-90
2022/06/09 02:43:14;;;;;;;18.83;7.25;;;15.10;87.90;;;;;;6230101;23;20211;-92
2022/06/09 02:45:41;;;;;;;21.63;6.88;;;15.10;88.20;;;;;;6225546;23;20164;-92
2022/06/09 02:48:07;;;;;;;17.90;7.25;;;15.10;88.20;;;;;;6224305;23;20152;-92
2022/06/09 02:50:33;;;;;;;16.73;7.82;;;15.00;88.10;;;;;;6226524;23;20164;-92
2022/06/09 02:53:00;;;;;;;28.38;7.70;;;15.10;88.50;;;;;;6238064;23;20164;-91
2022/06/09 02:55:26;;;;;;;20.20;7.70;;;15.10;88.40;;;;;;6273320;22;20145;-89
2022/06/09 02:57:52;;;;;;;14.60;6.88;;;15.10;88.40;;;;;;6247045;22;20148;-90
2022/06/09 03:00:19;;;;;;;30.43;8.60;;;15.00;88.20;;;;;;6270349;22;20191;-92
2022/06/09 03:02:57;;;;;;;27.50;8.80;;;15.00;88.20;;;;;;6233039;23;20404;-92
2022/06/09 03:05:24;;;;;;;24.73;8.88;;;15.00;88.10;;;;;;6238709;23;20152;-92
2022/06/09 03:07:50;;;;;;;23.27;6.75;;;15.00;88.20;;;;;;6238023;23;20167;-93
2022/06/09 03:10:16;;;;;;;17.80;6.60;;;15.00;88.40;;;;;;6258847;23;20176;-92
2022/06/09 03:12:42;;;;;;;28.97;8.07;;;15.00;88.50;;;;;;6224429;23;20438;-92
2022/06/09 03:15:10;;;;;;;20.23;8.50;;;14.90;88.50;;;;;;6225212;23;20406;-92
2022/06/09 03:17:36;;;;;;;21.55;7.55;;;14.90;88.60;;;;;;6224749;23;20523;-92
2022/06/09 03:20:05;;;;;;;23.02;8.73;;;15.00;88.70;;;;;;6225017;23;20212;-93
2022/06/09 03:22:32;;;;;;;35.92;9.90;;;15.00;88.60;;;;;;6224522;23;20235;-92
2022/06/09 03:24:59;;;;;;;25.08;8.50;;;14.90;88.80;;;;;;6225305;23;20152;-93
2022/06/09 03:27:25;;;;;;;28.70;8.52;;;14.90;89.00;;;;;;6224748;23;20164;-92
2022/06/09 03:29:51;;;;;;;21.75;8.15;;;14.90;89.00;;;;;;6223426;23;20235;-91
2022/06/09 03:32:17;;;;;;;22.15;8.13;;;14.90;89.10;;;;;;6223852;23;20197;-91
2022/06/09 03:34:43;;;;;;;34.33;10.10;;;14.90;89.00;;;;;;6227673;23;20156;-93
2022/06/09 03:37:09;;;;;;;29.90;9.97;;;14.90;88.90;;;;;;6232328;23;20645;-93
2022/06/09 03:39:35;;;;;;;22.37;7.93;;;14.90;89.00;;;;;;6257175;23;20458;-93
2022/06/09 03:42:01;;;;;;;23.83;9.68;;;14.90;89.00;;;;;;6227836;23;20184;-91
2022/06/09 03:44:26;;;;;;;20.37;8.87;;;14.90;89.00;;;;;;6231438;23;20153;-93
2022/06/09 03:46:52;;;;;;;24.07;7.63;;;14.90;89.10;;;;;;6224741;23;20190;-92
2022/06/09 03:49:18;;;;;;;23.83;7.40;;;14.90;89.20;;;;;;6227151;23;20251;-93
2022/06/09 03:51:44;;;;;;;39.35;9.27;;;14.90;89.10;;;;;;6237947;22;20165;-90
2022/06/09 03:54:10;;;;;;;17.97;7.53;;;14.90;89.10;;;;;;6222064;22;20156;-89
2022/06/09 03:56:36;;;;;;;36.33;9.87;;;14.90;89.00;;;;;;6274061;22;20188;-87
2022/06/09 03:59:02;;;;;;;16.43;8.10;;;14.90;88.90;;;;;;6238847;22;20309;-93
2022/06/09 04:01:27;;;;;;;31.43;9.13;;;14.90;88.80;;;;;;6225081;23;20176;-93
2022/06/09 04:03:53;;;;;;;28.73;9.20;;;14.90;88.70;;;;;;6224394;23;20375;-92
2022/06/09 04:06:22;;;;;;;18.53;7.27;;;14.90;89.00;;;;;;6226063;23;20156;-91
2022/06/09 04:08:48;;;;;;;17.17;7.70;;;14.90;89.00;;;;;;6226639;23;20243;-92
2022/06/09 04:11:15;;;;;;;23.77;7.03;;;15.00;88.70;;;;;;6231430;23;20187;-93
2022/06/09 04:13:41;;;;;;;16.88;7.57;;;15.00;88.30;;;;;;6232999;23;20164;-93
2022/06/09 04:16:19;;;;;;;30.27;8.33;;;15.00;87.80;;;;;;6261610;23;20188;-93
2022/06/09 04:18:45;;;;;;;21.83;8.40;;;15.00;87.70;;;;;;6227973;23;20406;-93
2022/06/09 04:21:11;;;;;;;18.73;7.10;;;15.00;88.00;;;;;;6227775;23;20172;-93
2022/06/09 04:23:37;;;;;;;16.58;6.88;;;15.10;87.70;;;;;;6252666;23;20376;-93
2022/06/09 04:26:17;;;;;;;18.80;7.33;;;15.20;87.40;;;;;;6227115;23;20156;-93
2022/06/09 04:28:43;;;;;;;18.33;7.50;;;15.20;87.80;;;;;;6233688;23;20228;-93
2022/06/09 04:31:11;;;;;;;16.88;7.82;;;15.20;88.00;;;;;;6227169;23;20176;-92
2022/06/09 04:33:37;;;;;;;19.85;7.57;;;15.20;88.10;;;;;;6232668;23;20156;-92
2022/06/09 04:36:03;;;;;;;24.90;8.07;;;15.30;87.70;;;;;;6234880;23;20185;-94
2022/06/09 04:38:29;;;;;;;13.02;6.53;;;15.30;87.60;;;;;;6233905;23;20392;-93
2022/06/09 04:40:55;;;;;;;22.43;8.23;;;15.30;87.40;;;;;;6228190;22;20177;-93
2022/06/09 04:43:21;;;;;;;28.07;7.40;;;15.30;87.50;;;;;;6226289;23;20163;-93
2022/06/09 04:45:46;;;;;;;20.48;6.80;;;15.30;87.40;;;;;;6225693;23;20210;-95
2022/06/09 04:48:13;;;;;;;13.20;6.57;;;15.30;87.20;;;;;;6225137;23;20673;-94
2022/06/09 04:50:40;;;;;;;27.83;7.20;;;15.40;87.20;;;;;;6226743;22;20235;-94
2022/06/09 04:53:08;;;;;;;17.38;6.63;;;15.40;86.90;;;;;;6226797;23;20163;-94
2022/06/09 04:55:35;;;;;;;22.58;7.10;;;15.50;86.70;;;;;;6226241;23;20152;-95
2022/06/09 04:58:01;;;;;;;21.10;6.43;;;15.60;86.30;;;;;;6228536;22;20161;-94
2022/06/09 05:00:30;;;;;;;12.00;6.13;;;15.70;86.20;;;;;;6230610;23;20162;-94
2022/06/09 05:02:59;;;;;;;20.42;7.10;;;15.70;86.00;;;;;;6230034;23;20177;-94
2022/06/09 05:05:32;;;;;;;22.20;7.47;;;15.90;85.50;;;;;;6236216;23;20223;-93
2022/06/09 05:07:59;;;;;;;16.70;6.13;;;16.00;85.00;;;;;;6273288;22;20148;-91
2022/06/09 05:10:26;;;;;;;19.10;6.35;;;16.00;84.80;;;;;;6247541;22;20156;-90
2022/06/09 05:12:52;;;;;;;22.85;7.00;;;16.00;84.40;;;;;;6254649;22;20183;-94
2022/06/09 05:15:24;;;;;;;17.77;6.20;;;16.20;83.90;;;;;;6226341;23;20172;-94
2022/06/09 05:17:51;;;;;;;21.25;6.30;;;16.50;83.20;;;;;;6232172;22;20219;-94
2022/06/09 05:20:20;;;;;;;14.23;5.50;;;17.10;81.20;;;;;;6259946;23;20192;-92
2022/06/09 05:22:46;;;;;;;16.17;4.28;;;17.90;77.90;;;;;;6246930;22;20170;-94
2022/06/09 05:25:13;;;;;;;17.87;5.93;;;18.90;74.20;;;;;;6238714;22;20172;-93
2022/06/09 05:27:45;;;;;;;13.70;4.90;;;19.50;70.60;;;;;;6226678;23;20376;-94
2022/06/09 05:30:21;;;;;;;17.03;5.90;;;20.20;67.20;;;;;;6227761;23;20375;-93
2022/06/09 05:32:48;;;;;;;14.63;5.07;;;21.10;64.60;;;;;;6232769;23;20403;-93
2022/06/09 05:35:15;;;;;;;10.63;4.50;;;21.70;61.70;;;;;;6238762;23;20397;-92
2022/06/09 05:45:58;;;;;;;9.93;5.03;;;22.60;56.70;;;;;;6273164;22;20389;-92
2022/06/09 05:48:25;;;;;;;13.50;4.37;;;22.70;56.40;;;;;;6246947;22;20374;-91
2022/06/09 05:50:52;;;;;;;14.63;5.20;;;22.80;56.80;;;;;;6243737;22;20160;-93
2022/06/09 05:53:18;;;;;;;12.40;4.90;;;22.50;56.40;;;;;;6238896;22;20380;-90
2022/06/09 05:55:44;;;;;;;11.07;4.57;;;22.10;57.60;;;;;;6273048;22;20406;-90
2022/06/09 05:58:10;;;;;;;9.00;4.70;;;22.20;58.00;;;;;;6244237;23;20376;-92
2022/06/09 06:00:37;;;;;;;17.47;5.70;;;21.90;58.70;;;;;;6244422;22;20179;-92
2022/06/09 06:03:03;;;;;;;15.87;5.83;;;21.20;60.20;;;;;;6245039;23;20391;-92
2022/06/09 06:08:13;;;;;;;16.03;5.23;;;20.60;63.10;;;;;;6271229;22;20394;-92
2022/06/09 06:10:39;;;;;;;16.13;5.33;;;20.30;64.90;;;;;;6246859;22;20387;-91
2022/06/09 06:13:05;;;;;;;14.23;5.43;;;20.10;66.00;;;;;;6275075;22;20159;-91
2022/06/09 06:15:32;;;;;;;17.00;5.10;;;20.10;66.20;;;;;;6248732;22;20431;-90
2022/06/09 06:18:02;;;;;;;15.27;4.50;;;20.30;66.40;;;;;;6246163;22;20447;-91
2022/06/09 06:20:29;;;;;;;13.60;4.50;;;20.50;65.70;;;;;;6245352;23;20390;-92
2022/06/09 06:22:55;;;;;;;13.40;4.70;;;20.80;65.40;;;;;;6272298;22;20391;-91
2022/06/09 06:25:22;;;;;;;13.33;5.20;;;21.00;64.20;;;;;;6246695;22;20414;-90
2022/06/09 06:27:48;;;;;;;14.40;4.70;;;21.50;64.10;;;;;;6247716;22;20405;-95
2022/06/09 06:30:14;;;;;;;9.83;4.00;;;22.10;61.90;;;;;;6248095;22;20442;-91
2022/06/09 06:32:40;;;;;;;13.37;5.20;;;22.30;60.30;;;;;;6248963;22;20169;-91
2022/06/09 06:35:06;;;;;;;11.23;5.27;;;22.70;59.00;;;;;;6248573;22;20229;-91
2022/06/09 06:37:33;;;;;;;11.80;5.40;;;22.60;58.10;;;;;;6248216;22;20195;-91
2022/06/09 06:39:59;;;;;;;12.33;5.57;;;22.30;58.50;;;;;;6245789;22;20401;-95
2022/06/09 06:42:25;;;;;;;12.90;4.87;;;22.20;60.00;;;;;;6244954;22;20434;-91
2022/06/09 06:44:51;;;;;;;15.70;5.27;;;22.90;57.90;;;;;;6246747;22;20379;-93
2022/06/09 06:47:17;;;;;;;13.23;6.03;;;22.80;57.30;;;;;;6247640;22;20387;-92
2022/06/09 06:49:43;;;;;;;10.17;4.53;;;22.30;58.30;;;;;;6223448;22;20455;-91
2022/06/09 06:52:09;;;;;;;11.73;5.37;;;22.00;59.50;;;;;;6247293;22;20423;-91
2022/06/09 06:54:35;;;;;;;11.80;4.70;;;21.90;60.20;;;;;;6247392;23;20371;-92
2022/06/09 06:57:05;;;;;;;14.90;4.40;;;22.10;60.40;;;;;;6246847;22;20498;-91
2022/06/09 06:59:32;;;;;;;14.33;4.70;;;22.30;59.80;;;;;;6246391;22;20144;-91
2022/06/09 07:01:58;;;;;;;11.63;4.50;;;22.20;59.10;;;;;;6274056;22;20462;-91
2022/06/09 07:04:24;;;;;;;15.97;4.60;;;22.40;58.90;;;;;;6248506;22;20375;-91
2022/06/09 07:06:50;;;;;;;6.80;3.73;;;22.50;58.50;;;;;;6248260;22;20387;-91
2022/06/09 07:09:16;;;;;;;11.00;4.17;;;22.60;58.70;;;;;;6266571;22;20687;-88
2022/06/09 07:11:43;;;;;;;6.70;4.13;;;22.50;58.40;;;;;;6249763;23;20205;-88
2022/06/09 07:14:10;;;;;;;18.83;4.50;;;22.50;58.40;;;;;;6222629;23;20376;-88
2022/06/09 07:16:35;;;;;;;10.10;4.17;;;22.50;58.60;;;;;;6221948;23;20423;-88
2022/06/09 07:19:01;;;;;;;9.13;4.00;;;22.30;57.90;;;;;;6221413;22;20453;-88
2022/06/09 07:21:27;;;;;;;10.47;4.63;;;22.70;57.60;;;;;;6221693;23;20160;-88
2022/06/09 07:23:53;;;;;;;6.77;3.70;;;22.60;56.60;;;;;;6197133;23;20376;-87
2022/06/09 07:26:19;;;;;;;11.80;3.87;;;22.30;57.40;;;;;;6221008;23;20168;-88
2022/06/09 07:28:45;;;;;;;12.47;3.77;;;21.90;58.40;;;;;;6221043;23;20156;-88
2022/06/09 07:31:11;;;;;;;8.80;3.50;;;21.60;59.60;;;;;;6222068;23;20410;-87
2022/06/09 07:33:39;;;;;;;3.57;3.17;;;21.50;60.70;;;;;;6249493;23;20376;-88
2022/06/09 07:36:15;;;;;;;3.87;3.27;;;21.40;61.00;;;;;;6248661;23;20923;-88
2022/06/09 07:38:41;;;;;;;8.27;3.30;;;21.40;61.30;;;;;;6222713;23;20417;-88
2022/06/09 07:41:08;;;;;;;7.27;4.10;;;21.50;61.00;;;;;;6249722;22;20423;-88
2022/06/09 07:43:34;;;;;;;7.83;5.37;;;21.10;60.90;;;;;;6223994;23;21103;-87
2022/06/09 07:45:59;;;;;;;8.27;4.83;;;20.90;61.20;;;;;;6222745;23;20613;-87
2022/06/09 07:48:25;;;;;;;12.40;4.93;;;20.70;62.40;;;;;;6223049;23;20856;-87
2022/06/09 07:50:51;;;;;;;10.40;6.17;;;20.40;63.90;;;;;;6199634;23;20195;-87
2022/06/09 07:53:19;;;;;;;7.87;4.20;;;20.10;64.70;;;;;;6226470;23;20156;-87
2022/06/09 07:55:45;;;;;;;10.23;3.90;;;20.00;65.60;;;;;;6224138;23;20383;-87
2022/06/09 07:58:12;;;;;;;10.10;4.80;;;19.90;66.40;;;;;;6247345;23;20371;-87
2022/06/09 08:00:38;;;;;;;7.17;3.90;;;19.80;66.40;;;;;;6221213;23;20758;-87
2022/06/09 08:03:04;;;;;;;7.43;4.00;;;19.40;67.30;;;;;;6221876;23;20887;-88
2022/06/09 08:05:31;;;;;;;10.07;3.90;;;19.30;67.50;;;;;;6222251;23;20845;-87
2022/06/09 08:07:57;;;;;;;6.30;2.90;;;19.10;68.20;;;;;;6221353;23;20845;-87
2022/06/09 08:10:25;;;;;;;6.57;2.60;;;19.10;68.50;;;;;;6248163;22;20415;-88
2022/06/09 08:12:56;;;;;;;5.03;1.90;;;19.10;69.30;;;;;;6222057;23;20390;-88
2022/06/09 08:15:24;;;;;;;5.33;2.50;;;19.10;69.40;;;;;;6221827;23;20367;-88
2022/06/09 08:17:55;;;;;;;5.50;2.37;;;19.20;70.80;;;;;;6220353;23;20438;-87
2022/06/09 08:20:21;;;;;;;4.03;2.90;;;19.40;71.30;;;;;;6221231;23;20398;-87
2022/06/09 08:22:47;;;;;;;6.00;2.77;;;19.30;70.80;;;;;;6220960;23;20387;-87
2022/06/09 08:25:18;;;;;;;5.23;3.17;;;19.20;71.20;;;;;;6220989;23;20389;-87
2022/06/09 08:27:44;;;;;;;5.25;2.40;;;19.10;71.70;;;;;;6221154;23;20406;-87
2022/06/09 08:30:13;;;;;;;3.70;2.47;;;19.00;72.10;;;;;;6220634;23;20521;-87
2022/06/09 08:32:39;;;;;;;7.47;2.97;;;19.00;71.80;;;;;;6220844;23;20157;-88
2022/06/09 08:35:09;;;;;;;7.00;3.43;;;19.10;71.90;;;;;;6220617;23;20160;-87
2022/06/09 08:37:34;;;;;;;7.40;3.40;;;19.20;71.40;;;;;;6247570;23;20610;-88
2022/06/09 08:40:04;;;;;;;4.17;2.53;;;19.20;70.80;;;;;;6221497;23;20414;-88
2022/06/09 08:43:02;;;;;;;5.80;2.77;;;19.70;69.40;;;;;;6221288;23;20695;-88
2022/06/09 08:45:33;;;;;;;7.70;2.23;;;19.60;69.00;;;;;;6141933;23;20390;-88
2022/06/09 08:48:02;;;;;;;4.67;2.80;;;19.70;69.10;;;;;;6251173;23;20561;-87
2022/06/09 08:50:53;;;;;;;6.63;3.73;;;19.80;69.40;;;;;;6199075;23;20411;-87
2022/06/09 08:53:45;;;;;;;10.53;3.20;;;20.00;68.20;;;;;;6220880;23;20391;-88
2022/06/09 08:56:26;;;;;;;4.87;2.60;;;20.20;67.70;;;;;;6247682;23;20801;-87
2022/06/09 08:59:02;;;;;;;7.60;3.30;;;20.60;66.30;;;;;;6247265;22;20664;-88
2022/06/09 09:01:35;;;;;;;7.40;3.30;;;20.40;67.40;;;;;;6220239;23;20379;-88
2022/06/09 09:04:29;;;;;;;8.20;2.90;;;19.90;70.50;;;;;;6220467;23;20363;-87
2022/06/09 09:07:29;;;;;;;7.47;3.33;;;19.40;72.40;;;;;;6220075;23;20422;-87
2022/06/09 09:10:12;;;;;;;13.05;4.82;;;19.10;75.20;;;;;;6220310;23;20434;-87
2022/06/09 09:12:49;;;;;;;11.82;5.40;;;18.60;78.10;;;;;;6221626;23;20152;-87
2022/06/09 09:15:38;;;;;;;10.30;5.07;;;18.50;80.50;;;;;;6221039;23;20152;-87
2022/06/09 09:18:04;;;;;;;11.00;5.78;;;18.50;81.20;;;;;;6220509;23;20156;-87
2022/06/09 09:20:38;;;;;;;11.33;4.97;;;18.40;82.40;;;;;;6221588;23;20226;-87
2022/06/09 09:23:11;;;;;;;15.30;5.38;;;18.40;83.10;;;;;;6221284;23;20144;-88
2022/06/09 09:25:45;;;;;;;11.93;5.65;;;18.60;83.80;;;;;;6221524;23;20172;-88
2022/06/09 09:28:31;;;;;;;8.45;4.28;;;18.70;84.10;;;;;;6220087;23;20152;-87
2022/06/09 09:31:20;;;;;;;7.93;4.10;;;18.80;83.10;;;;;;6220588;23;20172;-88
2022/06/09 09:33:46;;;;;;;11.05;4.75;;;19.20;82.00;;;;;;6231934;23;20220;-88
2022/06/09 09:36:29;;;;;;;9.70;4.47;;;19.30;81.60;;;;;;6219941;23;20183;-87
2022/06/09 09:39:08;;;;;;;8.43;3.90;;;19.30;80.40;;;;;;6220981;22;20376;-88
2022/06/09 09:41:44;;;;;;;6.20;3.50;;;19.40;79.10;;;;;;6247652;23;20352;-88
2022/06/09 09:44:23;;;;;;;9.10;3.63;;;19.50;77.10;;;;;;6223272;23;20505;-88
2022/06/09 09:46:55;;;;;;;10.13;2.90;;;19.90;77.20;;;;;;6204661;23;20891;-88
2022/06/09 09:49:33;;;;;;;5.90;2.83;;;20.00;74.50;;;;;;6230641;23;20402;-88
2022/06/09 09:51:59;;;;;;;5.67;3.03;;;20.10;72.40;;;;;;6228165;23;20411;-87
2022/06/09 09:54:51;;;;;;;7.00;3.47;;;20.40;72.70;;;;;;6223006;23;20379;-88
2022/06/09 09:57:20;;;;;;;5.40;3.90;;;20.40;71.70;;;;;;6217918;23;20423;-88
2022/06/09 09:59:51;;;;;;;7.60;3.93;;;20.20;71.30;;;;;;6223035;23;20487;-88
2022/06/09 10:08:40;;;;;;;6.70;3.27;;;20.70;69.70;;;;;;6248952;23;20848;-88
2022/06/09 10:14:40;;;;;;;8.60;3.30;;;20.90;66.00;;;;;;6248483;23;20930;-88
2022/06/09 10:17:20;;;;;;;4.60;3.03;;;20.70;65.60;;;;;;6221708;23;20453;-87
2022/06/09 10:19:52;;;;;;;8.47;3.43;;;20.50;65.20;;;;;;6222288;23;20403;-87
2022/06/09 10:22:24;;;;;;;4.07;2.80;;;20.60;65.10;;;;;;6249976;23;20449;-88
2022/06/09 10:25:14;;;;;;;10.13;2.60;;;20.70;65.50;;;;;;6223759;23;20368;-88
2022/06/09 10:27:41;;;;;;;5.27;3.13;;;20.50;64.40;;;;;;6223003;23;20774;-88
2022/06/09 10:30:19;;;;;;;7.40;3.23;;;20.80;65.20;;;;;;6248819;22;20453;-88
2022/06/09 10:32:49;;;;;;;6.83;2.50;;;20.90;62.80;;;;;;6222660;23;20379;-88
2022/06/09 10:35:50;;;;;;;5.03;2.90;;;20.70;64.00;;;;;;6223419;23;20458;-87
2022/06/09 10:38:47;;;;;;;6.53;2.80;;;20.80;64.60;;;;;;6179691;23;20401;-88
2022/06/09 10:41:19;;;;;;;5.73;2.70;;;20.50;63.40;;;;;;6223856;23;20386;-88
2022/06/09 10:44:04;;;;;;;6.67;2.00;;;20.60;61.80;;;;;;6222994;23;20403;-88
2022/06/09 10:56:08;;;;;;;8.90;2.70;;;20.30;59.80;;;;;;6210632;23;20402;-87
2022/06/09 10:58:44;;;;;;;6.37;2.93;;;20.30;61.30;;;;;;6221863;23;20387;-88
2022/06/09 11:01:22;;;;;;;6.20;2.53;;;20.10;60.30;;;;;;6222012;23;20410;-88
2022/06/09 11:03:50;;;;;;;7.00;2.93;;;20.10;60.80;;;;;;6222279;23;20383;-88
2022/06/09 11:06:36;;;;;;;6.53;2.30;;;20.10;61.10;;;;;;6221691;23;20384;-88
2022/06/09 11:09:14;;;;;;;5.33;2.10;;;20.20;61.50;;;;;;6221764;22;20387;-88
2022/06/09 11:12:03;;;;;;;10.95;2.63;;;20.20;62.70;;;;;;6222243;23;20379;-88
2022/06/09 11:15:09;;;;;;;3.97;2.50;;;20.20;61.30;;;;;;6222368;23;20148;-88
2022/06/09 11:17:37;;;;;;;6.10;2.63;;;20.30;60.90;;;;;;6223023;23;20431;-89
2022/06/09 11:20:18;;;;;;;6.13;2.40;;;20.30;61.20;;;;;;6250133;22;20387;-89
2022/06/09 11:23:06;;;;;;;4.07;2.77;;;20.20;59.70;;;;;;6223106;23;20378;-88
2022/06/09 11:25:50;;;;;;;6.87;3.13;;;20.20;59.80;;;;;;6223647;23;20375;-88
2022/06/09 11:29:02;;;;;;;6.80;2.50;;;20.30;59.90;;;;;;6222823;23;20380;-88
2022/06/09 11:31:39;;;;;;;7.50;2.50;;;20.50;59.80;;;;;;6249839;23;20364;-89
2022/06/09 11:34:46;;;;;;;5.73;3.07;;;20.80;59.40;;;;;;6250597;23;20370;-88
2022/06/09 11:37:14;;;;;;;6.83;2.90;;;20.70;58.30;;;;;;6222896;23;21016;-88
2022/06/09 11:39:52;;;;;;;6.83;2.13;;;20.80;58.60;;;;;;6250632;22;20387;-88
2022/06/09 11:42:55;;;;;;;11.20;2.40;;;21.00;58.50;;;;;;6221996;23;20379;-88
2022/06/09 11:45:30;;;;;;;6.13;3.10;;;21.20;58.80;;;;;;6222595;23;20923;-88
2022/06/09 11:47:59;;;;;;;9.63;2.43;;;20.90;58.50;;;;;;6223191;23;20366;-88
2022/06/09 11:50:41;;;;;;;6.50;2.80;;;20.80;59.10;;;;;;6249768;22;20399;-88
2022/06/09 11:53:07;;;;;;;6.30;2.23;;;21.00;59.30;;;;;;6222619;23;20402;-88
2022/06/09 11:58:37;;;;;;;6.10;2.33;;;21.20;56.70;;;;;;6249826;23;20363;-89
2022/06/09 12:01:28;;;;;;;4.87;2.80;;;21.10;56.00;;;;;;6223503;23;20919;-89
2022/06/09 12:04:23;;;;;;;7.20;3.57;;;21.10;56.70;;;;;;6250339;23;20393;-89
2022/06/09 12:07:11;;;;;;;5.80;2.13;;;21.10;56.20;;;;;;6222840;23;20408;-88
2022/06/09 12:09:36;;;;;;;7.13;2.40;;;21.10;54.80;;;;;;6222367;23;20437;-89
2022/06/09 12:12:25;;;;;;;5.43;2.03;;;20.90;54.90;;;;;;6223378;23;20391;-88
2022/06/09 12:15:08;;;;;;;6.90;2.60;;;21.00;55.40;;;;;;6222421;23;20161;-89
2022/06/09 12:17:34;;;;;;;8.40;2.50;;;21.20;55.70;;;;;;6249898;23;20434;-88
2022/06/09 12:20:07;;;;;;;4.43;2.30;;;21.20;55.70;;;;;;6222741;23;20407;-88
2022/06/09 12:22:39;;;;;;;3.93;2.03;;;21.40;55.50;;;;;;6222709;23;20399;-88
2022/06/09 12:25:08;;;;;;;3.90;2.17;;;21.20;55.80;;;;;;6250385;23;20398;-89
2022/06/09 12:27:40;;;;;;;15.80;3.40;;;21.30;56.70;;;;;;6252682;23;20379;-89
2022/06/09 12:30:15;;;;;;;7.03;2.87;;;21.30;55.70;;;;;;6234414;23;20407;-88
2022/06/09 12:32:51;;;;;;;6.40;2.50;;;21.00;55.00;;;;;;6225984;23;20395;-89
2022/06/09 12:35:26;;;;;;;10.17;2.60;;;20.70;55.10;;;;;;6255176;23;20370;-88
2022/06/09 12:38:02;;;;;;;4.93;2.00;;;20.70;55.90;;;;;;6226509;23;20422;-89
2022/06/09 12:40:42;;;;;;;5.60;2.57;;;20.80;55.90;;;;;;6240062;23;20391;-90
2022/06/09 12:43:21;;;;;;;4.63;2.40;;;21.00;56.10;;;;;;6271853;22;20387;-88
2022/06/09 12:46:03;;;;;;;7.10;2.60;;;21.30;56.90;;;;;;6245408;22;20379;-89
2022/06/09 12:48:33;;;;;;;5.63;2.43;;;21.70;55.80;;;;;;6267092;23;20378;-88
2022/06/09 12:51:04;;;;;;;11.27;3.20;;;21.80;55.50;;;;;;6239573;23;20407;-89
2022/06/09 12:53:36;;;;;;;6.57;2.43;;;21.90;55.20;;;;;;6221708;23;20376;-89
2022/06/09 12:56:32;;;;;;;5.77;3.13;;;22.00;55.10;;;;;;6247997;23;20363;-89
2022/06/09 12:59:25;;;;;;;7.50;2.73;;;21.70;54.60;;;;;;6219708;22;20371;-89
2022/06/09 13:02:18;;;;;;;10.00;3.07;;;21.40;54.60;;;;;;6220688;23;20804;-89
2022/06/09 13:05:12;;;;;;;6.87;3.53;;;21.40;54.80;;;;;;6247458;23;20352;-89
2022/06/09 13:07:46;;;;;;;13.53;3.53;;;21.00;53.90;;;;;;6220770;23;20379;-90
2022/06/09 13:10:30;;;;;;;10.73;2.53;;;20.90;54.80;;;;;;6220577;23;20426;-90
2022/06/09 13:13:18;;;;;;;12.77;3.30;;;21.00;55.50;;;;;;6220179;23;20381;-89
2022/06/09 13:16:23;;;;;;;8.10;2.83;;;21.10;56.30;;;;;;6221127;23;20379;-89
2022/06/09 13:19:17;;;;;;;11.93;4.10;;;21.00;56.40;;;;;;6226519;22;20457;-90
2022/06/09 13:21:44;;;;;;;8.83;3.50;;;21.30;56.70;;;;;;6220449;23;20376;-89
2022/06/09 13:24:21;;;;;;;9.23;3.47;;;21.40;56.30;;;;;;6220520;23;20433;-90
2022/06/09 13:26:47;;;;;;;11.60;3.53;;;21.60;55.90;;;;;;6220752;23;20404;-90
2022/06/09 13:29:27;;;;;;;8.70;2.90;;;21.60;55.40;;;;;;6220343;23;21070;-89
2022/06/09 13:32:19;;;;;;;7.10;3.00;;;21.60;55.50;;;;;;6219628;23;20367;-89
2022/06/09 13:34:48;;;;;;;11.97;2.50;;;21.20;53.30;;;;;;6220724;23;20407;-89
2022/06/09 13:37:43;;;;;;;6.83;2.43;;;21.10;53.50;;;;;;6220761;23;20469;-89
2022/06/09 13:40:19;;;;;;;5.70;2.30;;;21.10;53.40;;;;;;6201695;23;20870;-90
2022/06/09 13:42:50;;;;;;;7.60;2.63;;;21.10;51.70;;;;;;6220478;23;20378;-89